createdAt,value
2019-03-06T00:00:50.060Z,14.72
2019-03-06T00:03:42.034Z,14.77
2019-03-06T00:06:52.062Z,14.79
2019-03-06T00:10:02.931Z,14.79
2019-03-06T00:21:58.752Z,14.91
2019-03-06T00:34:35.081Z,14.22
2019-03-06T00:37:37.498Z,14.54
2019-03-06T00:41:01.583Z,14.68
2019-03-06T00:43:52.127Z,14.99
2019-03-06T00:49:53.905Z,15.36
2019-03-06T00:52:03.426Z,15.46
2019-03-06T00:54:34.052Z,15.43
2019-03-06T00:57:45.646Z,15.46
2019-03-06T01:00:18.568Z,15.49
2019-03-06T01:02:50.085Z,15.44
2019-03-06T01:05:24.773Z,15.48
2019-03-06T01:08:02.699Z,15.44
2019-03-06T01:10:37.712Z,15.44
2019-03-06T01:14:02.157Z,15.40
2019-03-06T01:17:00.331Z,15.25
2019-03-06T01:22:27.245Z,15.07
2019-03-06T01:28:18.006Z,14.98
2019-03-06T01:30:51.210Z,15.05
2019-03-06T01:33:43.057Z,15.20
2019-03-06T01:36:33.950Z,15.23
2019-03-06T01:39:44.483Z,15.15
2019-03-06T01:42:33.245Z,15.18
2019-03-06T01:45:07.007Z,15.28
2019-03-06T01:47:39.591Z,15.43
2019-03-06T01:50:28.953Z,15.25
2019-03-06T01:56:01.130Z,14.93
2019-03-06T01:58:55.060Z,15.05
2019-03-06T02:02:04.752Z,15.00
2019-03-06T02:05:14.289Z,15.02
2019-03-06T02:07:45.090Z,15.07
2019-03-06T02:13:19.191Z,15.44
2019-03-06T02:18:50.658Z,15.86
2019-03-06T02:24:22.580Z,15.85
2019-03-06T02:29:58.332Z,15.91
2019-03-06T02:35:13.154Z,15.75
2019-03-06T02:40:55.537Z,15.80
2019-03-06T02:46:48.928Z,15.65
2019-03-06T02:49:24.871Z,15.83
2019-03-06T02:51:58.768Z,15.81
2019-03-06T02:58:05.126Z,16.12
2019-03-06T03:01:13.176Z,16.15
2019-03-06T03:04:19.879Z,16.12
2019-03-06T03:07:34.467Z,16.16
2019-03-06T03:10:27.785Z,16.10
2019-03-06T03:16:04.741Z,15.86
2019-03-06T03:21:56.625Z,16.03
2019-03-06T03:24:35.502Z,16.04
2019-03-06T03:27:47.338Z,15.90
2019-03-06T03:33:41.502Z,15.65
2019-03-06T03:39:15.031Z,15.50
2019-03-06T03:45:05.302Z,15.32
2019-03-06T03:51:37.375Z,15.45
2019-03-06T03:54:34.211Z,15.57
2019-03-06T04:00:26.564Z,15.66
2019-03-06T04:03:05.271Z,15.75
2019-03-06T04:05:35.961Z,15.87
2019-03-06T04:11:11.145Z,15.68
2019-03-06T04:14:03.586Z,15.59
2019-03-06T04:17:25.982Z,15.48
2019-03-06T04:19:56.385Z,15.59
2019-03-06T04:22:50.016Z,15.46
2019-03-06T04:25:21.280Z,15.30
2019-03-06T04:27:52.290Z,15.21
2019-03-06T04:30:46.050Z,15.20
2019-03-06T04:33:37.640Z,15.36
2019-03-06T04:36:52.709Z,15.52
2019-03-06T04:39:43.447Z,15.52
2019-03-06T04:42:17.555Z,15.54
2019-03-06T04:45:17.651Z,15.62
2019-03-06T04:48:20.997Z,15.59
2019-03-06T04:50:56.007Z,15.50
2019-03-06T04:53:34.467Z,15.16
2019-03-06T04:56:12.819Z,15.04
2019-03-06T04:58:50.133Z,14.85
2019-03-06T05:01:39.861Z,14.70
2019-03-06T05:04:28.936Z,14.61
2019-03-06T05:07:46.661Z,14.47
2019-03-06T05:13:41.619Z,14.11
2019-03-06T05:22:47.012Z,13.94
2019-03-06T05:25:18.969Z,13.94
2019-03-06T05:28:14.641Z,13.82
2019-03-06T05:30:58.845Z,13.73
2019-03-06T05:33:50.032Z,13.73
2019-03-06T05:37:07.061Z,13.50
2019-03-06T05:46:01.121Z,13.31
2019-03-06T05:48:52.741Z,13.15
2019-03-06T05:51:23.905Z,13.12
2019-03-06T05:53:59.152Z,13.29
2019-03-06T05:56:48.795Z,13.43
2019-03-06T06:05:43.007Z,13.86
2019-03-06T06:11:07.574Z,13.88
2019-03-06T06:13:43.341Z,13.81
2019-03-06T06:16:14.954Z,13.68
2019-03-06T06:19:08.633Z,13.75
2019-03-06T06:22:01.145Z,13.87
2019-03-06T06:25:04.622Z,13.99
2019-03-06T06:27:45.545Z,14.11
2019-03-06T06:33:29.074Z,14.80
2019-03-06T06:36:08.502Z,15.33
2019-03-06T06:42:20.303Z,16.41
2019-03-06T06:44:53.347Z,16.50
2019-03-06T06:47:24.785Z,15.67
2019-03-06T06:50:20.414Z,15.67
2019-03-06T07:00:21.557Z,15.14
2019-03-06T07:03:46.817Z,15.32
2019-03-06T07:06:56.848Z,15.61
2019-03-06T07:09:48.204Z,15.74
2019-03-06T07:13:38.060Z,15.89
2019-03-06T07:16:36.973Z,15.98
2019-03-06T07:19:48.235Z,16.02
2019-03-06T07:25:55.189Z,17.01
2019-03-06T07:28:44.298Z,17.29
2019-03-06T07:31:34.030Z,17.30
2019-03-06T07:34:23.246Z,17.40
2019-03-06T07:37:39.782Z,17.33
2019-03-06T07:40:49.431Z,17.46
2019-03-06T07:43:59.398Z,17.33
2019-03-06T07:47:08.249Z,17.31
2019-03-06T07:50:20.248Z,17.28
2019-03-06T07:53:49.002Z,17.43
2019-03-06T08:06:41.399Z,17.96
2019-03-06T08:10:02.945Z,18.16
2019-03-06T08:12:52.536Z,18.21
2019-03-06T08:22:45.287Z,18.41
2019-03-06T08:25:13.053Z,18.54
2019-03-06T08:34:49.844Z,18.56
2019-03-06T08:37:25.528Z,18.66
2019-03-06T08:40:14.488Z,19.28
2019-03-06T08:49:36.241Z,19.68
2019-03-06T08:52:35.824Z,20.02
2019-03-06T08:55:25.055Z,20.12
2019-03-06T08:58:34.993Z,20.13
2019-03-06T09:05:04.442Z,20.58
2019-03-06T09:07:47.945Z,20.88
2019-03-06T09:11:02.435Z,20.95
2019-03-06T09:13:48.213Z,21.10
2019-03-06T09:16:37.971Z,21.20
2019-03-06T09:19:27.585Z,21.45
2019-03-06T09:22:18.780Z,21.80
2019-03-06T09:28:31.561Z,22.03
2019-03-06T09:31:22.327Z,21.79
2019-03-06T09:34:32.293Z,21.64
2019-03-06T09:37:41.003Z,21.53
2019-03-06T09:40:49.154Z,21.63
2019-03-06T09:44:20.010Z,21.78
2019-03-06T09:47:31.179Z,21.92
2019-03-06T09:50:53.699Z,21.72
2019-03-06T09:53:31.688Z,21.88
2019-03-06T09:56:39.707Z,22.12
2019-03-06T09:59:23.234Z,22.06
2019-03-06T10:02:53.375Z,22.16
2019-03-06T10:06:01.995Z,22.10
2019-03-06T10:09:11.014Z,22.14
2019-03-06T10:12:12.721Z,22.25
2019-03-06T10:15:16.031Z,22.04
2019-03-06T10:18:21.456Z,22.04
2019-03-06T10:24:27.386Z,22.14
2019-03-06T10:30:02.651Z,21.99
2019-03-06T10:33:07.351Z,21.99
2019-03-06T10:36:08.295Z,21.89
2019-03-06T10:42:09.712Z,22.35
2019-03-06T10:45:22.924Z,22.68
2019-03-06T10:51:26.401Z,23.70
2019-03-06T11:06:39.853Z,24.58
2019-03-06T11:09:44.848Z,24.91
2019-03-06T11:15:23.866Z,24.98
2019-03-06T11:18:07.411Z,25.28
2019-03-06T11:23:52.359Z,24.93
2019-03-06T11:26:42.376Z,24.98
2019-03-06T11:41:15.949Z,24.18
2019-03-06T11:49:56.887Z,23.97
2019-03-06T11:58:58.091Z,24.06
2019-03-06T12:04:30.881Z,24.21
2019-03-06T12:07:45.225Z,24.01
2019-03-06T12:13:55.253Z,23.77
2019-03-06T12:16:31.269Z,23.96
2019-03-06T12:19:10.818Z,24.52
2019-03-06T12:21:53.771Z,24.27
2019-03-06T12:27:22.854Z,24.21
2019-03-06T12:30:16.602Z,24.16
2019-03-06T12:33:11.650Z,24.11
2019-03-06T12:36:03.350Z,23.90
2019-03-06T12:38:35.113Z,24.05
2019-03-06T12:41:58.909Z,24.29
2019-03-06T12:44:18.080Z,24.08
2019-03-06T12:52:52.221Z,23.57
2019-03-06T12:59:32.621Z,23.47
2019-03-06T13:02:07.230Z,23.54
2019-03-06T13:04:41.377Z,23.42
2019-03-06T13:07:38.334Z,23.53
2019-03-06T13:13:43.731Z,23.63
2019-03-06T13:16:25.211Z,23.52
2019-03-06T13:18:58.525Z,23.52
2019-03-06T13:25:10.849Z,23.85
2019-03-06T13:28:10.598Z,23.82
2019-03-06T13:31:07.162Z,23.75
2019-03-06T13:46:43.183Z,24.12
2019-03-06T13:49:19.571Z,24.14
2019-03-06T13:52:19.475Z,24.11
2019-03-06T13:55:11.156Z,24.31
2019-03-06T13:58:15.171Z,24.57
2019-03-06T14:07:58.962Z,24.89
2019-03-06T14:10:51.427Z,24.35
2019-03-06T14:13:36.839Z,24.49
2019-03-06T14:16:32.605Z,24.49
2019-03-06T14:19:43.757Z,24.58
2019-03-06T14:22:58.935Z,24.80
2019-03-06T14:25:56.210Z,25.05
2019-03-06T14:31:38.608Z,24.66
2019-03-06T14:37:36.493Z,24.60
2019-03-06T14:40:52.542Z,24.50
2019-03-06T14:44:05.608Z,24.07
2019-03-06T14:47:15.477Z,24.29
2019-03-06T14:49:49.476Z,24.71
2019-03-06T14:52:22.218Z,24.91
2019-03-06T14:55:34.227Z,24.96
2019-03-06T15:08:11.750Z,25.29
2019-03-06T15:10:58.219Z,24.80
2019-03-06T15:19:43.762Z,24.12
2019-03-06T15:22:49.190Z,24.21
2019-03-06T15:25:32.117Z,24.16
2019-03-06T15:41:37.102Z,23.54
2019-03-06T15:44:11.251Z,23.48
2019-03-06T15:46:48.759Z,23.37
2019-03-06T15:50:02.269Z,23.29
2019-03-06T15:53:05.582Z,23.40
2019-03-06T15:55:45.840Z,23.28
2019-03-06T15:58:50.113Z,23.19
2019-03-06T16:04:57.489Z,23.00
2019-03-06T16:20:53.950Z,22.92
2019-03-06T16:24:24.268Z,22.86
2019-03-06T16:26:57.942Z,22.84
2019-03-06T16:29:33.887Z,22.78
2019-03-06T16:32:29.196Z,22.78
2019-03-06T16:35:47.045Z,22.70
2019-03-06T16:38:58.222Z,22.71
2019-03-06T16:45:25.855Z,22.48
2019-03-06T16:48:16.974Z,22.60
2019-03-06T16:51:27.789Z,22.66
2019-03-06T16:54:36.617Z,22.57
2019-03-06T16:57:11.044Z,22.35
2019-03-06T16:59:43.231Z,22.31
2019-03-06T17:11:36.901Z,22.00
2019-03-06T17:14:30.573Z,21.81
2019-03-06T17:23:29.191Z,21.70
2019-03-06T17:26:20.726Z,21.81
2019-03-06T17:29:23.497Z,21.69
2019-03-06T17:31:55.204Z,21.60
2019-03-06T17:34:42.435Z,21.46
2019-03-06T17:37:04.390Z,21.28
2019-03-06T17:43:26.382Z,20.74
2019-03-06T17:46:17.396Z,20.24
2019-03-06T17:48:49.684Z,19.84
2019-03-06T17:51:25.853Z,19.76
2019-03-06T18:03:59.423Z,19.68
2019-03-06T18:06:47.331Z,19.62
2019-03-06T18:09:58.362Z,19.52
2019-03-06T18:15:38.483Z,19.46
2019-03-06T18:18:12.666Z,19.62
2019-03-06T18:20:50.593Z,19.59
2019-03-06T18:23:25.351Z,19.49
2019-03-06T18:29:23.099Z,19.62
2019-03-06T18:32:08.599Z,19.64
2019-03-06T18:35:12.761Z,19.65
2019-03-06T18:38:35.263Z,19.95
2019-03-06T18:41:18.392Z,19.88
2019-03-06T18:44:07.395Z,19.75
2019-03-06T18:46:43.748Z,19.74
2019-03-06T18:49:48.452Z,19.67
2019-03-06T18:53:00.095Z,19.67
2019-03-06T18:55:43.072Z,19.80
2019-03-06T18:58:45.126Z,19.96
2019-03-06T19:01:32.283Z,19.95
2019-03-06T19:07:07.119Z,19.88
2019-03-06T19:13:20.062Z,19.72
2019-03-06T19:16:06.143Z,19.52
2019-03-06T19:19:16.859Z,19.54
2019-03-06T19:22:07.595Z,19.50
2019-03-06T19:27:59.180Z,19.47
2019-03-06T19:30:47.939Z,19.62
2019-03-06T19:33:44.386Z,20.02
2019-03-06T19:36:34.549Z,20.10
2019-03-06T19:46:15.692Z,20.44
2019-03-06T19:48:36.868Z,20.44
2019-03-06T19:54:34.395Z,20.36
2019-03-06T20:03:29.805Z,20.57
2019-03-06T20:07:03.442Z,20.46
2019-03-06T20:09:35.608Z,20.72
2019-03-06T20:12:08.635Z,20.38
2019-03-06T20:15:21.470Z,20.60
2019-03-06T20:18:23.922Z,20.60
2019-03-06T20:21:32.820Z,20.87
2019-03-06T20:24:13.515Z,20.54
2019-03-06T20:30:26.082Z,20.02
2019-03-06T20:33:36.762Z,20.01
2019-03-06T20:40:29.724Z,20.15
2019-03-06T20:46:40.387Z,19.86
2019-03-06T20:49:13.845Z,20.14
2019-03-06T20:51:56.014Z,20.03
2019-03-06T20:54:28.069Z,19.93
2019-03-06T20:57:17.305Z,20.07
2019-03-06T21:02:47.956Z,20.02
2019-03-06T21:05:18.065Z,20.00
2019-03-06T21:08:08.564Z,19.99
2019-03-06T21:11:04.550Z,20.00
2019-03-06T21:17:03.006Z,19.61
2019-03-06T21:20:09.796Z,19.71
2019-03-06T21:23:00.378Z,19.82
2019-03-06T21:26:10.647Z,19.55
2019-03-06T21:29:34.807Z,19.51
2019-03-06T21:32:16.950Z,19.58
2019-03-06T21:35:00.619Z,19.71
2019-03-06T21:37:44.656Z,19.60
2019-03-06T21:40:04.642Z,19.91
2019-03-06T21:43:12.369Z,20.08
2019-03-06T21:48:47.916Z,20.29
2019-03-06T21:51:26.710Z,20.38
2019-03-06T22:00:38.135Z,20.61
2019-03-06T22:03:50.270Z,20.63
2019-03-06T22:06:23.541Z,20.33
2019-03-06T22:09:21.914Z,20.34
2019-03-06T22:11:55.361Z,20.30
2019-03-06T22:14:44.547Z,20.48
2019-03-06T22:23:38.675Z,20.17
2019-03-06T22:26:10.391Z,20.31
2019-03-06T22:29:03.249Z,20.34
2019-03-06T22:31:37.119Z,20.15
2019-03-06T22:34:31.665Z,20.31
2019-03-06T22:40:29.639Z,19.98
2019-03-06T22:43:20.376Z,19.98
2019-03-06T22:46:32.525Z,20.09
2019-03-06T22:49:28.774Z,20.18
2019-03-06T22:52:37.888Z,20.18
2019-03-06T22:55:57.092Z,20.28
2019-03-06T22:59:04.824Z,20.28
2019-03-06T23:02:08.778Z,20.30
2019-03-06T23:07:48.639Z,20.42
2019-03-06T23:10:58.875Z,20.30
2019-03-06T23:14:12.005Z,20.47
2019-03-06T23:17:09.735Z,20.62
2019-03-06T23:20:00.899Z,20.72
2019-03-06T23:25:45.774Z,20.68
2019-03-06T23:28:52.132Z,20.74
2019-03-06T23:35:20.042Z,20.16
2019-03-06T23:44:32.918Z,19.73
2019-03-06T23:47:40.810Z,19.78
2019-03-06T23:54:02.967Z,19.86
